Munising, Michigan
Current Conditions -  °F | °C
As of 7:50 PM on Monday 22 Dec 2014 (Local Time) from KSAW Reporting Station
Overcast Overcast  
Wind Chill: -4°   Ceiling: 6000
Heat Index:   Visibility: 7mi
Dew Point: -2°   Wind: 9mph
Humidity: 87%   Direction: 130°SE
Pressure: 29.86"   Gusts: NA
Location:  46.41°N, 86.65°W
Report Text: KSAW 230050Z 13008KT 7SM BKN060 OVC075 00/M02 A2986
Loading
Personal Weather Stations






























Interactive Weather Map New forecast layout! Learn more

10-Day Weather Forecast

Advertisements
Track Severe Weather on mobile